Aviation Digital Data Service (ADDS)

Output produced by METARs form (0323 UTC 21 September 2017)
found at http://www.aviationweather.gov/adds/metars/
 
MGGT 202300Z 2100/2124 18006KT 9999 SCT016 BKN200 TX26/2120Z TN17/2112Z 
     TEMPO 2103/2106 8000 VCTSRA FEW025CB 
     PROB30 2106/2112 8000 DZ BKN014 
     BECMG 2115/2117 FEW018 
     BECMG 2120/2122 SCT020 
     TEMPO 2120/2124 TSRA FEW025CB
       
MGMM 202300Z 2100/2124 00000KT 9999 SCT018 TX33/2120Z TN22/2112Z 
     TEMPO 2100/2104 8000 TSRA FEW025CB 
     BECMG 2106/2108 CAVOK 
     BECMG 2115/2117 08008KT FEW018 
     BECMG 2120/2124 SCT020TCU
       
MGPB 202300Z 2100/2124 00000KT 9999 FEW018 TX33/2120Z TN22/2112Z 
     TEMPO 2104/21010 8000 TSRA FEW025CB 
     BECMG 2115/2117 06008KT SCT018 
     TEMPO 2120/2124 8000 VCTSRA FEW025CB
       
MGSJ 202300Z 2100/2124 00000KT 9999 SCT018 TX32/2120Z TN23/2112Z 
     TEMPO 2100/2106 8000 VCTSRA SCT025CB 
     BECMG 2115/2117 18008KT 
     TEMPO 2120/2124 8000 TSRA SCT018 FEW025CB
       
MGGT 202300Z 2100/2124 18006KT 9999 SCT016 BKN200 TX26/2120Z TN17/2112Z 
     TEMPO 2103/2106 8000 VCTSRA FEW025CB 
     PROB30 2106/2112 8000 DZ BKN014 
     BECMG 2115/2117 FEW018 
     BECMG 2120/2122 SCT020 
     TEMPO 2120/2124 TSRA FEW025CB
       
MGPB 202300Z 2100/2124 00000KT 9999 FEW018 TX33/2120Z TN22/2112Z 
     TEMPO 2104/21010 8000 TSRA FEW025CB 
     BECMG 2115/2117 06008KT SCT018 
     TEMPO 2120/2124 8000 VCTSRA FEW025CB
       
MGSJ 202300Z 2100/2124 00000KT 9999 SCT018 TX32/2120Z TN23/2112Z 
     TEMPO 2100/2106 8000 VCTSRA SCT025CB 
     BECMG 2115/2117 18008KT 
     TEMPO 2120/2124 8000 TSRA SCT018 FEW025CB